Stowe, Vermont
Current Conditions -  °F | °C
As of 3:54 PM on Thursday 23 Oct 2014 (Local Time) from KMVL Reporting Station
Overcast Overcast  
Wind Chill: 41°   Ceiling: 1600
Heat Index: 46°   Visibility: 10mi
Dew Point: 43°   Wind: 9mph
Humidity: 89%   Direction: 360°N
Pressure: 29.91"   Gusts: NA
Location:  44.47°N, 72.68°W
Report Text: KMVL 231954Z AUTO 36008KT 10SM OVC016 08/06 A2991 RMK AO2 RAE18 SLP132 P0001 T00780061
Loading
Personal Weather Stations






























Interactive Weather Map
Tropical Storm Tracking
New forecast layout! Learn more

10-Day Weather Forecast

Advertisements
Track Severe Weather on mobile